Time;durP1;ratioP1;P1;durP2;ratioP2;P2;SDS_P1;SDS_P2;PMS_P1;PMS_P2;Temp;Humidity;BMP_temperature;BMP_pressure;BME280_temperature;BME280_humidity;BME280_pressure;Samples;Min_cycle;Max_cycle;Signal;HPM_P1;HPM_P2
2022/07/02 00:01:19;;;;;;;14.93;6.93;;;13.70;99.90;;;;;;5014799;28;20104;-76
2022/07/02 00:03:51;;;;;;;12.73;5.80;;;13.60;99.90;;;;;;5014915;28;20153;-76
2022/07/02 00:06:19;;;;;;;15.02;6.20;;;13.60;99.90;;;;;;5014815;28;20473;-77
2022/07/02 00:08:45;;;;;;;16.52;6.35;;;13.60;99.90;;;;;;4996871;28;20050;-77
2022/07/02 00:11:16;;;;;;;18.35;7.00;;;13.60;99.90;;;;;;5014265;28;20125;-77
2022/07/02 00:13:42;;;;;;;14.95;6.30;;;13.60;99.90;;;;;;5014186;28;20046;-77
2022/07/02 00:16:12;;;;;;;14.35;6.32;;;13.50;99.90;;;;;;4996516;28;20537;-76
2022/07/02 00:18:38;;;;;;;16.15;6.25;;;13.50;99.90;;;;;;4996798;28;20052;-77
2022/07/02 00:21:04;;;;;;;16.50;6.60;;;13.60;99.90;;;;;;5014245;28;20132;-78
2022/07/02 00:23:30;;;;;;;14.05;6.80;;;13.50;99.90;;;;;;5014552;28;20317;-78
2022/07/02 00:26:07;;;;;;;18.02;6.28;;;13.50;99.90;;;;;;5014091;28;20509;-78
2022/07/02 00:28:36;;;;;;;13.02;6.30;;;13.40;99.90;;;;;;5014256;28;20050;-78
2022/07/02 00:31:02;;;;;;;12.95;6.00;;;13.30;99.90;;;;;;4996775;28;20056;-78
2022/07/02 00:33:30;;;;;;;15.45;6.60;;;13.30;99.90;;;;;;5014095;28;20042;-77
2022/07/02 00:35:57;;;;;;;16.50;6.68;;;13.20;99.90;;;;;;5014974;28;20037;-78
2022/07/02 00:38:23;;;;;;;15.52;6.78;;;13.10;99.90;;;;;;4998295;28;20072;-77
2022/07/02 00:40:49;;;;;;;15.70;5.95;;;13.10;99.90;;;;;;4998194;28;20132;-78
2022/07/02 00:43:18;;;;;;;13.32;6.35;;;13.10;99.90;;;;;;5030109;28;20066;-78
2022/07/02 00:45:44;;;;;;;15.05;6.63;;;13.10;99.90;;;;;;5017036;28;20049;-78
2022/07/02 00:48:11;;;;;;;20.38;6.57;;;13.10;99.90;;;;;;5014876;28;20068;-78
2022/07/02 00:50:37;;;;;;;16.23;6.78;;;13.10;99.90;;;;;;5032048;28;20405;-77
2022/07/02 00:53:03;;;;;;;20.80;7.25;;;13.00;99.90;;;;;;5021269;28;20077;-76
2022/07/02 00:55:29;;;;;;;15.90;7.05;;;13.10;99.90;;;;;;5018487;28;20052;-77
2022/07/02 00:57:55;;;;;;;16.70;7.10;;;13.00;99.90;;;;;;5000899;28;20048;-76
2022/07/02 01:00:21;;;;;;;15.07;7.45;;;13.00;99.90;;;;;;5001325;28;20042;-77
2022/07/02 01:02:47;;;;;;;13.57;6.60;;;13.00;99.90;;;;;;5017387;28;20049;-77
2022/07/02 01:05:20;;;;;;;16.77;7.30;;;13.00;99.90;;;;;;4997155;28;20061;-77
2022/07/02 01:10:16;;;;;;;19.95;6.85;;;12.90;99.90;;;;;;5014687;28;20116;-78
2022/07/02 01:10:46;;;;;;;15.73;7.43;;;12.90;99.90;;;;;;5014718;28;20049;-77
2022/07/02 01:13:12;;;;;;;15.50;7.32;;;12.90;99.90;;;;;;5015627;28;20048;-76
2022/07/02 01:15:39;;;;;;;17.73;7.13;;;12.90;99.90;;;;;;5016581;28;20141;-77
2022/07/02 01:18:06;;;;;;;14.55;6.82;;;12.90;99.90;;;;;;5015020;28;20402;-76
2022/07/02 01:20:31;;;;;;;19.02;7.00;;;12.90;99.90;;;;;;4996657;28;20128;-76
2022/07/02 01:22:57;;;;;;;17.52;7.70;;;12.90;99.90;;;;;;4980502;28;20419;-76
2022/07/02 01:25:23;;;;;;;18.65;7.30;;;12.90;99.90;;;;;;5014537;28;20062;-76
2022/07/02 01:27:48;;;;;;;15.48;6.55;;;12.90;99.90;;;;;;4995396;28;20056;-78
2022/07/02 01:30:14;;;;;;;15.05;7.05;;;12.80;99.90;;;;;;4995772;28;20050;-76
2022/07/02 01:32:40;;;;;;;17.10;6.95;;;12.80;99.90;;;;;;5013464;28;20038;-76
2022/07/02 01:35:08;;;;;;;18.40;7.15;;;12.80;99.90;;;;;;5013023;28;20173;-76
2022/07/02 01:37:37;;;;;;;16.05;7.15;;;12.80;99.90;;;;;;5013694;28;20046;-76
2022/07/02 01:40:04;;;;;;;17.98;7.30;;;12.80;99.90;;;;;;4996080;28;20052;-76
2022/07/02 01:42:30;;;;;;;16.88;6.88;;;12.80;99.90;;;;;;4995772;28;20058;-76
2022/07/02 01:44:56;;;;;;;15.63;7.07;;;12.80;99.90;;;;;;4980295;28;20093;-77
2022/07/02 01:47:22;;;;;;;16.42;6.90;;;12.90;99.90;;;;;;4980208;28;20145;-76
2022/07/02 01:49:47;;;;;;;18.13;7.32;;;12.80;99.90;;;;;;4996084;28;20092;-76
2022/07/02 01:52:15;;;;;;;16.25;7.38;;;12.80;99.90;;;;;;4996137;28;20049;-77
2022/07/02 01:54:41;;;;;;;21.85;8.35;;;12.80;99.90;;;;;;5013529;28;20049;-76
2022/07/02 01:57:07;;;;;;;13.70;7.45;;;12.80;99.90;;;;;;4996285;28;20224;-77
2022/07/02 01:59:33;;;;;;;18.52;7.20;;;12.70;99.90;;;;;;5013555;28;20041;-77
2022/07/02 02:01:59;;;;;;;16.55;6.93;;;12.70;99.90;;;;;;5013333;28;20473;-76
2022/07/02 02:04:25;;;;;;;21.08;7.75;;;12.60;99.90;;;;;;5013431;28;20125;-77
2022/07/02 02:06:51;;;;;;;21.42;7.10;;;12.60;99.90;;;;;;5014107;28;20089;-76
2022/07/02 02:09:16;;;;;;;16.02;7.25;;;12.60;99.90;;;;;;5013840;28;20112;-77
2022/07/02 02:11:43;;;;;;;17.52;7.57;;;12.60;99.90;;;;;;5013741;28;20050;-77
2022/07/02 02:14:09;;;;;;;17.23;7.40;;;12.60;99.90;;;;;;4996063;28;20045;-76
2022/07/02 02:16:35;;;;;;;17.70;7.88;;;12.60;99.90;;;;;;5013916;28;20053;-77
2022/07/02 02:19:01;;;;;;;20.88;8.52;;;12.60;99.90;;;;;;5014094;28;20124;-77
2022/07/02 02:21:28;;;;;;;18.05;8.57;;;12.50;99.90;;;;;;5013674;28;20089;-76
2022/07/02 02:23:55;;;;;;;14.65;8.13;;;12.50;99.90;;;;;;4981105;28;20050;-77
2022/07/02 02:26:21;;;;;;;;;;;12.40;99.90;;;;;;5016017;28;20050;-76
2022/07/02 02:28:47;;;;;;;19.63;8.05;;;12.30;99.90;;;;;;5013807;28;19922;-77
2022/07/02 02:31:13;;;;;;;22.88;8.65;;;12.30;99.90;;;;;;5014349;28;20128;-77
2022/07/02 02:33:39;;;;;;;20.80;9.00;;;12.30;99.90;;;;;;4997324;28;20137;-76
2022/07/02 02:36:05;;;;;;;24.63;8.75;;;12.30;99.90;;;;;;5015453;28;20054;-77
2022/07/02 02:38:31;;;;;;;20.50;8.75;;;12.20;99.90;;;;;;5014955;28;20069;-78
2022/07/02 02:40:57;;;;;;;17.57;9.00;;;12.20;99.90;;;;;;5017435;28;20136;-78
2022/07/02 02:43:23;;;;;;;24.25;9.13;;;12.20;99.90;;;;;;5000142;28;20605;-77
2022/07/02 02:45:48;;;;;;;21.02;9.23;;;12.20;99.90;;;;;;5017816;28;20172;-77
2022/07/02 02:48:16;;;;;;;20.90;9.18;;;12.20;99.90;;;;;;5000278;28;20049;-77
2022/07/02 02:50:42;;;;;;;16.13;7.65;;;12.10;99.90;;;;;;5000198;28;20147;-78
2022/07/02 02:53:07;;;;;;;15.57;8.23;;;12.20;99.90;;;;;;5017412;28;20085;-78
2022/07/02 02:55:33;;;;;;;21.83;9.45;;;12.20;99.90;;;;;;5020133;28;20196;-78
2022/07/02 02:57:59;;;;;;;23.02;10.00;;;12.30;99.90;;;;;;5021486;28;20128;-79
2022/07/02 03:00:25;;;;;;;20.98;8.75;;;12.20;99.90;;;;;;5021965;28;20054;-78
2022/07/02 03:02:50;;;;;;;21.55;8.95;;;12.20;99.90;;;;;;5003704;28;20050;-77
2022/07/02 03:05:16;;;;;;;20.90;9.27;;;12.10;99.90;;;;;;5000509;28;20068;-77
2022/07/02 03:07:42;;;;;;;22.70;9.88;;;12.20;99.90;;;;;;4983713;28;20124;-78
2022/07/02 03:10:08;;;;;;;24.98;10.02;;;12.20;99.90;;;;;;4999133;28;20127;-77
2022/07/02 03:12:34;;;;;;;23.40;9.48;;;12.20;99.90;;;;;;4999373;28;20506;-78
2022/07/02 03:14:59;;;;;;;23.48;10.35;;;12.20;99.90;;;;;;5016820;28;20049;-78
2022/07/02 03:17:25;;;;;;;20.88;10.07;;;12.20;99.90;;;;;;5017101;28;20136;-78
2022/07/02 03:19:51;;;;;;;22.70;10.77;;;12.20;99.90;;;;;;5017366;28;20053;-77
2022/07/02 03:22:17;;;;;;;22.50;11.15;;;12.20;99.90;;;;;;5000928;28;20058;-76
2022/07/02 03:24:43;;;;;;;20.85;10.80;;;12.20;99.90;;;;;;5018456;28;20115;-78
2022/07/02 03:27:08;;;;;;;21.33;10.93;;;12.30;99.90;;;;;;5017747;28;20105;-76
2022/07/02 03:29:34;;;;;;;30.73;10.80;;;12.30;99.90;;;;;;5016794;28;20486;-77
2022/07/02 03:32:00;;;;;;;25.55;11.65;;;12.30;99.90;;;;;;5016544;28;20497;-77
2022/07/02 03:34:25;;;;;;;22.10;11.00;;;12.30;99.90;;;;;;5017018;28;20102;-76
2022/07/02 03:36:51;;;;;;;25.00;11.20;;;12.20;99.90;;;;;;4983984;28;20046;-77
2022/07/02 03:39:17;;;;;;;21.55;11.48;;;12.30;99.90;;;;;;5016815;28;20050;-77
2022/07/02 03:41:42;;;;;;;24.80;11.55;;;12.30;99.90;;;;;;4999998;28;20046;-77
2022/07/02 03:44:08;;;;;;;24.88;11.65;;;12.30;99.90;;;;;;5016926;28;20486;-78
2022/07/02 03:46:34;;;;;;;24.27;11.98;;;12.30;99.90;;;;;;4999096;28;20046;-77
2022/07/02 03:48:59;;;;;;;28.80;11.50;;;12.40;99.90;;;;;;5017243;28;20370;-78
2022/07/02 03:51:25;;;;;;;26.60;11.90;;;12.50;99.90;;;;;;4983013;28;20100;-77
2022/07/02 03:53:51;;;;;;;23.05;12.32;;;12.60;99.90;;;;;;5017100;28;20057;-78
2022/07/02 03:56:17;;;;;;;23.85;12.05;;;12.60;99.90;;;;;;4983542;28;20466;-79
2022/07/02 03:58:42;;;;;;;25.27;12.25;;;12.60;99.90;;;;;;4999845;28;20141;-78
2022/07/02 04:01:08;;;;;;;21.92;11.90;;;12.60;99.90;;;;;;4998964;28;20056;-79
2022/07/02 04:03:34;;;;;;;27.05;12.13;;;12.50;99.90;;;;;;5016204;28;20095;-78
2022/07/02 04:06:01;;;;;;;27.10;12.40;;;12.50;99.90;;;;;;5016378;28;20061;-78
2022/07/02 04:08:26;;;;;;;25.90;12.27;;;12.50;99.90;;;;;;4997836;28;20057;-78
2022/07/02 04:10:52;;;;;;;23.20;11.70;;;12.50;99.90;;;;;;4998871;28;20045;-78
2022/07/02 04:13:18;;;;;;;24.95;12.02;;;12.60;99.90;;;;;;5015874;28;20195;-79
2022/07/02 04:15:44;;;;;;;24.70;12.55;;;12.70;99.90;;;;;;5015897;28;20444;-79
2022/07/02 04:18:10;;;;;;;23.25;12.50;;;12.70;99.90;;;;;;4998166;28;20045;-79
2022/07/02 04:20:35;;;;;;;23.42;13.07;;;12.80;99.90;;;;;;5015867;28;20046;-78
2022/07/02 04:23:01;;;;;;;26.52;12.63;;;12.80;99.90;;;;;;5016706;28;20125;-77
2022/07/02 04:25:28;;;;;;;32.65;12.13;;;12.80;99.90;;;;;;4998877;28;20057;-79
2022/07/02 04:27:54;;;;;;;22.67;12.18;;;12.80;99.90;;;;;;5015550;28;20466;-78
2022/07/02 04:30:20;;;;;;;26.83;12.60;;;12.90;99.90;;;;;;5015579;28;20093;-78
2022/07/02 04:32:46;;;;;;;24.95;12.23;;;12.90;99.90;;;;;;4982806;28;20085;-78
2022/07/02 04:35:11;;;;;;;25.25;12.43;;;13.00;99.90;;;;;;4982098;28;20057;-78
2022/07/02 04:37:37;;;;;;;27.42;12.68;;;13.00;99.90;;;;;;5016313;28;20050;-76
2022/07/02 04:40:04;;;;;;;28.08;11.75;;;13.00;99.90;;;;;;5016803;28;20123;-77
2022/07/02 04:42:30;;;;;;;25.05;12.73;;;13.10;99.90;;;;;;5015609;28;20050;-77
2022/07/02 04:44:56;;;;;;;28.48;12.70;;;13.10;99.90;;;;;;5017243;28;20054;-77
2022/07/02 04:47:21;;;;;;;30.20;12.75;;;13.10;99.90;;;;;;4999548;28;20057;-78
2022/07/02 04:49:47;;;;;;;31.13;13.15;;;13.10;99.90;;;;;;5015160;28;20046;-77
2022/07/02 04:52:13;;;;;;;27.35;12.90;;;13.20;99.90;;;;;;5014891;28;20077;-78
2022/07/02 04:54:38;;;;;;;34.95;13.98;;;13.20;99.90;;;;;;4996804;28;20049;-76
2022/07/02 04:57:04;;;;;;;27.38;12.40;;;13.30;99.90;;;;;;5014330;28;20137;-77
2022/07/02 04:59:30;;;;;;;27.42;13.73;;;13.30;99.90;;;;;;4996615;28;20049;-76
2022/07/02 05:01:56;;;;;;;26.13;12.38;;;13.30;99.90;;;;;;5013665;28;20042;-78
2022/07/02 05:04:21;;;;;;;29.08;13.00;;;13.40;99.90;;;;;;5013887;28;20447;-78
2022/07/02 05:06:47;;;;;;;28.77;13.00;;;13.40;99.90;;;;;;5013700;28;20045;-79
2022/07/02 05:09:13;;;;;;;24.98;12.85;;;13.50;99.90;;;;;;4996761;28;20088;-78
2022/07/02 05:11:39;;;;;;;28.35;13.48;;;13.50;99.90;;;;;;4996664;28;20046;-79
2022/07/02 05:14:04;;;;;;;24.40;13.45;;;13.50;99.90;;;;;;5014108;28;20053;-77
2022/07/02 05:16:30;;;;;;;22.95;12.35;;;13.60;99.90;;;;;;5014832;28;20054;-77
2022/07/02 05:18:56;;;;;;;24.67;12.85;;;13.60;99.90;;;;;;5016110;28;20054;-77
2022/07/02 05:21:22;;;;;;;24.92;11.85;;;13.70;99.90;;;;;;4997717;28;20095;-76
2022/07/02 05:23:47;;;;;;;26.50;12.68;;;13.90;99.90;;;;;;5014651;28;20049;-78
2022/07/02 05:26:13;;;;;;;27.63;11.20;;;13.90;99.90;;;;;;5014513;28;20041;-77
2022/07/02 05:28:39;;;;;;;24.60;12.27;;;14.00;99.90;;;;;;4996171;28;20052;-79
2022/07/02 05:31:05;;;;;;;27.63;12.55;;;13.90;99.90;;;;;;4980082;28;20038;-77
2022/07/02 05:33:30;;;;;;;25.73;11.13;;;13.90;99.90;;;;;;4995672;28;20099;-77
2022/07/02 05:35:56;;;;;;;26.40;11.68;;;14.00;99.90;;;;;;4995637;28;20061;-78
2022/07/02 05:38:22;;;;;;;24.13;12.15;;;14.10;99.90;;;;;;5013341;28;20124;-77
2022/07/02 05:40:48;;;;;;;25.35;10.80;;;14.10;99.90;;;;;;5013312;28;20068;-77
2022/07/02 05:43:13;;;;;;;23.27;11.00;;;14.20;99.90;;;;;;5012880;28;20422;-77
2022/07/02 05:45:39;;;;;;;25.48;11.70;;;14.30;99.90;;;;;;5013282;28;20065;-78
2022/07/02 05:48:05;;;;;;;29.77;10.75;;;14.30;99.90;;;;;;4980170;28;20053;-77
2022/07/02 05:50:31;;;;;;;21.08;10.30;;;14.40;99.90;;;;;;5013040;28;20401;-77
2022/07/02 05:52:56;;;;;;;18.20;9.30;;;14.40;99.90;;;;;;4963652;28;20089;-77
2022/07/02 05:55:22;;;;;;;21.17;9.40;;;14.50;99.90;;;;;;5015261;28;20053;-79
2022/07/02 05:57:48;;;;;;;23.17;9.95;;;14.60;99.90;;;;;;5018205;28;20089;-77
2022/07/02 06:00:14;;;;;;;21.45;9.18;;;14.70;99.90;;;;;;5021948;28;20133;-78
2022/07/02 06:02:40;;;;;;;18.15;9.27;;;14.80;99.90;;;;;;5018559;28;20045;-79
2022/07/02 06:07:51;;;;;;;17.98;9.45;;;15.00;99.90;;;;;;5014810;28;20144;-78
2022/07/02 06:10:20;;;;;;;23.35;9.05;;;15.10;99.90;;;;;;4995586;28;20135;-76
2022/07/02 06:12:51;;;;;;;18.30;8.57;;;15.10;99.90;;;;;;4996652;28;20046;-77
2022/07/02 06:15:18;;;;;;;19.33;8.35;;;15.20;99.90;;;;;;5000438;28;20482;-77
2022/07/02 06:17:44;;;;;;;21.67;8.63;;;15.20;99.90;;;;;;5016761;28;20042;-77
2022/07/02 06:20:12;;;;;;;19.57;8.53;;;15.30;99.90;;;;;;4999466;28;20081;-77
2022/07/02 06:22:38;;;;;;;17.65;7.50;;;15.40;99.90;;;;;;5016957;28;20042;-78
2022/07/02 06:25:08;;;;;;;19.58;7.53;;;15.40;99.90;;;;;;5016745;28;20052;-76
2022/07/02 06:27:34;;;;;;;19.25;8.27;;;15.50;99.90;;;;;;4982896;28;20068;-77
2022/07/02 06:30:01;;;;;;;16.45;7.43;;;15.60;99.90;;;;;;4999038;28;20454;-77
2022/07/02 06:32:27;;;;;;;16.92;7.90;;;15.60;99.90;;;;;;4998843;28;20049;-78
2022/07/02 06:34:53;;;;;;;24.40;6.93;;;15.70;99.90;;;;;;4999293;28;20053;-76
2022/07/02 06:37:19;;;;;;;18.60;6.80;;;15.80;99.90;;;;;;5016512;28;20101;-76
2022/07/02 06:39:46;;;;;;;18.35;7.03;;;16.00;99.90;;;;;;5016611;28;20053;-77
2022/07/02 06:42:22;;;;;;;20.48;6.45;;;16.00;99.90;;;;;;4999344;28;20084;-78
2022/07/02 06:44:53;;;;;;;16.73;6.10;;;16.10;99.90;;;;;;4999211;28;20050;-77
2022/07/02 06:47:19;;;;;;;14.73;4.53;;;16.30;99.90;;;;;;5016621;28;20060;-77
2022/07/02 06:49:47;;;;;;;11.48;3.92;;;16.40;99.90;;;;;;4999519;28;20046;-78
2022/07/02 06:52:13;;;;;;;11.57;4.45;;;16.50;99.90;;;;;;5016111;28;20497;-78
2022/07/02 06:54:39;;;;;;;13.82;4.03;;;16.60;99.90;;;;;;4999588;28;20381;-77
2022/07/02 06:57:06;;;;;;;11.05;4.47;;;16.80;99.90;;;;;;5016213;28;20068;-75
2022/07/02 06:59:32;;;;;;;8.00;3.85;;;16.90;99.90;;;;;;5015845;28;20137;-77
2022/07/02 07:01:58;;;;;;;9.85;3.95;;;17.00;99.90;;;;;;5016049;28;20076;-77
2022/07/02 07:04:24;;;;;;;12.50;3.95;;;17.10;99.90;;;;;;5016191;28;20073;-78
2022/07/02 07:06:56;;;;;;;9.73;3.73;;;17.10;99.90;;;;;;4999268;28;20042;-77
2022/07/02 07:09:25;;;;;;;11.35;3.58;;;17.10;99.90;;;;;;4999680;28;20038;-76
2022/07/02 07:11:51;;;;;;;10.15;3.53;;;17.20;99.90;;;;;;5015867;28;20048;-77
2022/07/02 07:14:17;;;;;;;11.80;3.40;;;17.30;99.90;;;;;;4998566;28;20132;-77
2022/07/02 07:16:44;;;;;;;8.90;3.08;;;17.40;99.90;;;;;;5016082;28;20041;-76
2022/07/02 07:19:10;;;;;;;;;;;17.60;99.90;;;;;;5016514;28;20049;-78
2022/07/02 07:21:38;;;;;;;10.93;3.20;;;17.80;99.90;;;;;;5015496;28;20357;-78
2022/07/02 07:24:05;;;;;;;9.20;2.67;;;17.70;99.90;;;;;;5015619;28;20614;-76
2022/07/02 07:26:31;;;;;;;10.27;2.92;;;17.80;99.90;;;;;;5015352;28;20049;-80
2022/07/02 07:28:57;;;;;;;7.85;2.45;;;17.80;99.90;;;;;;5015330;28;20058;-75
2022/07/02 07:31:23;;;;;;;6.87;1.70;;;17.90;99.90;;;;;;5015718;28;20054;-76
2022/07/02 07:33:50;;;;;;;8.90;2.20;;;18.00;99.90;;;;;;5014923;28;20450;-78
2022/07/02 07:36:17;;;;;;;12.95;2.35;;;18.10;99.90;;;;;;4998254;28;20132;-77
2022/07/02 07:38:43;;;;;;;;;;;18.00;99.90;;;;;;5015846;28;20050;-76
2022/07/02 07:41:09;;;;;;;6.97;1.48;;;18.20;99.90;;;;;;4998529;28;20261;-75
2022/07/02 07:43:34;;;;;;;6.50;1.60;;;18.40;99.90;;;;;;4997196;28;20100;-75
2022/07/02 07:46:00;;;;;;;6.47;1.43;;;18.70;99.90;;;;;;5015195;28;20049;-75
2022/07/02 07:48:26;;;;;;;4.77;1.40;;;18.90;99.90;;;;;;4998149;28;20052;-77
2022/07/02 07:50:52;;;;;;;7.47;1.50;;;19.10;99.90;;;;;;4997650;28;20389;-76
2022/07/02 07:53:19;;;;;;;7.77;1.60;;;19.40;99.90;;;;;;4997944;28;20129;-78
2022/07/02 07:55:46;;;;;;;5.10;1.30;;;19.60;99.90;;;;;;5015089;28;20081;-75
2022/07/02 07:58:12;;;;;;;;;;;19.70;99.90;;;;;;4998665;28;20057;-76
2022/07/02 08:00:38;;;;;;;5.03;1.20;;;19.80;99.30;;;;;;5015919;28;19944;-76
2022/07/02 08:03:03;;;;;;;10.43;1.07;;;19.90;99.90;;;;;;5015560;28;20048;-75
2022/07/02 08:05:29;;;;;;;5.77;1.10;;;19.90;96.40;;;;;;4986506;28;20094;-75
2022/07/02 08:07:55;;;;;;;6.57;1.20;;;19.70;98.00;;;;;;5010827;28;20122;-77
2022/07/02 08:10:20;;;;;;;8.63;1.60;;;19.80;98.40;;;;;;5010931;28;20046;-77
2022/07/02 08:12:50;;;;;;;5.67;1.40;;;19.70;98.70;;;;;;5026869;28;20057;-78
2022/07/02 08:15:16;;;;;;;3.47;1.02;;;19.80;98.10;;;;;;5027052;28;20057;-76
2022/07/02 08:17:42;;;;;;;5.97;0.87;;;19.70;97.90;;;;;;5017288;28;20038;-77
2022/07/02 08:20:09;;;;;;;3.92;0.70;;;19.60;97.60;;;;;;5034209;28;20042;-76
2022/07/02 08:22:35;;;;;;;5.18;0.70;;;19.60;96.10;;;;;;5032259;28;20081;-80
2022/07/02 08:25:03;;;;;;;2.53;0.70;;;19.60;96.50;;;;;;5024709;28;20052;-75
2022/07/02 08:27:29;;;;;;;3.67;0.60;;;19.70;96.70;;;;;;5007605;28;20045;-77
2022/07/02 08:29:55;;;;;;;5.37;0.70;;;19.70;95.60;;;;;;5023303;28;20053;-76
2022/07/02 08:32:21;;;;;;;3.80;0.50;;;19.60;96.50;;;;;;5021259;28;20129;-76
2022/07/02 08:34:47;;;;;;;3.42;0.60;;;19.80;96.80;;;;;;5019295;28;20385;-76
2022/07/02 08:37:13;;;;;;;3.40;1.15;;;19.80;96.50;;;;;;5016961;28;20053;-77
2022/07/02 08:39:39;;;;;;;2.90;0.65;;;19.80;95.80;;;;;;5015723;28;20085;-76
2022/07/02 08:42:06;;;;;;;3.00;0.60;;;19.80;94.30;;;;;;5015446;28;20057;-74
2022/07/02 08:44:33;;;;;;;4.40;0.60;;;19.90;94.80;;;;;;5014759;28;20053;-74
2022/07/02 08:47:00;;;;;;;2.40;0.70;;;19.80;93.90;;;;;;4997105;28;20062;-75
2022/07/02 08:49:28;;;;;;;5.47;0.65;;;19.90;93.80;;;;;;5014919;28;20049;-77
2022/07/02 08:52:04;;;;;;;6.20;0.80;;;19.90;94.50;;;;;;4999075;28;20120;-78
2022/07/02 08:54:34;;;;;;;5.65;0.52;;;19.90;95.00;;;;;;4997516;28;20149;-76
2022/07/02 08:57:02;;;;;;;4.93;0.65;;;20.00;94.10;;;;;;4981422;28;20046;-76
2022/07/02 08:59:30;;;;;;;5.55;0.60;;;19.90;93.50;;;;;;4996963;28;20115;-77
2022/07/02 09:01:57;;;;;;;3.65;0.70;;;20.10;94.50;;;;;;5014989;28;20050;-77
2022/07/02 09:04:24;;;;;;;11.15;0.60;;;20.30;94.40;;;;;;4980945;28;20057;-76
2022/07/02 09:06:58;;;;;;;5.85;0.60;;;20.30;93.90;;;;;;4997050;28;20050;-76
2022/07/02 09:09:28;;;;;;;5.05;0.70;;;20.40;94.20;;;;;;5014424;28;20049;-77
2022/07/02 09:11:54;;;;;;;4.07;0.60;;;20.50;94.30;;;;;;5013623;28;20050;-77
2022/07/02 09:14:21;;;;;;;2.60;0.60;;;20.60;93.40;;;;;;5013985;28;20042;-77
2022/07/02 09:16:47;;;;;;;;;;;20.60;92.90;;;;;;4997388;28;20042;-76
2022/07/02 09:19:13;;;;;;;3.88;0.70;;;20.70;92.10;;;;;;4996455;28;19922;-78
2022/07/02 09:21:41;;;;;;;2.58;0.50;;;20.60;93.40;;;;;;4979908;28;20052;-77
2022/07/02 09:24:07;;;;;;;4.80;0.77;;;20.70;93.40;;;;;;5013626;28;20058;-77
2022/07/02 09:26:33;;;;;;;2.90;0.70;;;20.80;92.60;;;;;;4980140;28;20508;-76
2022/07/02 09:28:59;;;;;;;5.67;0.63;;;20.90;91.90;;;;;;5013927;28;20050;-75
2022/07/02 09:31:30;;;;;;;3.75;0.70;;;20.90;91.60;;;;;;5013694;28;20088;-75
2022/07/02 09:33:57;;;;;;;4.53;0.80;;;21.00;92.00;;;;;;5013420;28;20042;-75
2022/07/02 09:36:24;;;;;;;4.72;0.70;;;21.00;92.20;;;;;;5015277;28;20049;-77
2022/07/02 09:38:52;;;;;;;3.47;0.70;;;21.10;91.80;;;;;;4997635;28;20045;-76
2022/07/02 09:41:21;;;;;;;8.35;0.88;;;21.20;91.20;;;;;;5015144;28;20103;-76
2022/07/02 09:44:03;;;;;;;9.68;0.90;;;21.30;91.90;;;;;;5015854;28;20116;-75
2022/07/02 09:46:29;;;;;;;6.78;0.77;;;21.50;92.60;;;;;;5015685;28;20136;-74
2022/07/02 09:49:08;;;;;;;5.93;0.90;;;21.70;92.40;;;;;;4985514;28;20045;-76
2022/07/02 09:51:45;;;;;;;5.18;0.93;;;22.00;92.10;;;;;;5019751;28;20041;-76
2022/07/02 09:54:21;;;;;;;3.22;0.73;;;22.10;91.60;;;;;;5018895;28;20050;-77
2022/07/02 09:56:57;;;;;;;3.10;1.00;;;22.40;90.50;;;;;;5018725;28;20049;-77
2022/07/02 09:59:24;;;;;;;8.77;0.75;;;22.50;90.50;;;;;;5018921;28;20049;-79
2022/07/02 10:01:50;;;;;;;5.20;0.80;;;22.70;90.30;;;;;;5019076;28;20104;-78
2022/07/02 10:04:30;;;;;;;5.38;0.80;;;22.80;89.40;;;;;;5019337;28;20060;-77
2022/07/02 10:06:57;;;;;;;5.57;0.80;;;22.50;87.80;;;;;;5018709;28;20042;-79
2022/07/02 10:09:24;;;;;;;4.03;0.60;;;22.50;87.50;;;;;;5017838;28;20053;-78
2022/07/02 10:11:51;;;;;;;4.00;0.70;;;22.60;90.20;;;;;;5017782;28;20050;-79
2022/07/02 10:14:20;;;;;;;7.03;0.80;;;22.50;86.80;;;;;;5018071;28;20049;-78
2022/07/02 10:16:51;;;;;;;4.28;0.70;;;22.50;87.90;;;;;;5017656;28;20062;-78
2022/07/02 10:19:18;;;;;;;6.18;0.90;;;22.50;88.60;;;;;;5017469;28;20060;-78
2022/07/02 10:21:44;;;;;;;5.45;0.75;;;22.60;87.50;;;;;;4999855;28;20053;-77
2022/07/02 10:24:12;;;;;;;9.60;0.70;;;22.50;86.80;;;;;;5017425;28;20054;-79
2022/07/02 10:26:38;;;;;;;5.70;0.70;;;22.60;86.10;;;;;;5017249;28;20444;-76
2022/07/02 10:29:04;;;;;;;4.53;0.95;;;22.70;85.80;;;;;;4999021;28;20489;-78
2022/07/02 10:31:59;;;;;;;5.53;0.70;;;22.80;85.80;;;;;;4983370;28;20065;-77
2022/07/02 10:34:44;;;;;;;3.58;0.70;;;22.90;85.70;;;;;;4984279;28;20045;-78
2022/07/02 10:37:11;;;;;;;3.23;1.03;;;22.90;84.50;;;;;;5017170;28;20112;-79
2022/07/02 10:39:42;;;;;;;3.38;0.75;;;22.80;81.90;;;;;;4999828;28;20061;-78
2022/07/02 10:42:08;;;;;;;6.72;0.75;;;22.70;82.80;;;;;;4999335;28;20053;-77
2022/07/02 10:44:42;;;;;;;5.22;0.63;;;22.80;83.60;;;;;;5016490;28;20058;-79
2022/07/02 10:47:26;;;;;;;7.28;0.80;;;22.70;84.50;;;;;;5018116;28;20049;-78
2022/07/02 10:49:59;;;;;;;5.30;0.88;;;22.90;83.70;;;;;;5018501;28;20053;-80
2022/07/02 10:52:38;;;;;;;5.03;0.82;;;22.90;86.10;;;;;;5000406;28;20050;-80
2022/07/02 10:55:05;;;;;;;5.20;0.70;;;23.20;82.70;;;;;;5019388;28;20061;-72
2022/07/02 10:57:30;;;;;;;4.05;0.82;;;23.40;82.10;;;;;;5002631;28;20084;-81
2022/07/02 10:59:56;;;;;;;5.43;0.80;;;23.60;82.50;;;;;;5019793;28;20050;-79
2022/07/02 11:02:33;;;;;;;3.37;0.67;;;23.80;81.60;;;;;;5021805;28;20042;-78
2022/07/02 11:05:13;;;;;;;8.57;1.13;;;23.80;81.40;;;;;;5017783;28;20540;-72
2022/07/02 11:07:43;;;;;;;4.43;0.90;;;23.90;81.90;;;;;;5016631;28;20053;-76
2022/07/02 11:10:10;;;;;;;4.70;0.90;;;24.00;78.30;;;;;;4983305;28;20057;-78
2022/07/02 11:12:57;;;;;;;4.38;0.75;;;24.30;79.70;;;;;;5017487;28;20101;-78
2022/07/02 11:15:35;;;;;;;3.88;0.75;;;24.10;77.70;;;;;;4999919;28;20053;-78
2022/07/02 11:18:06;;;;;;;2.38;0.90;;;24.00;76.40;;;;;;5017764;28;20115;-77
2022/07/02 11:20:35;;;;;;;4.22;0.70;;;23.50;78.10;;;;;;4999789;28;20042;-76
2022/07/02 11:23:02;;;;;;;5.55;1.00;;;23.40;81.30;;;;;;5017771;28;20049;-76
2022/07/02 11:25:32;;;;;;;4.50;0.73;;;23.40;81.20;;;;;;5000294;28;20046;-77
2022/07/02 11:27:59;;;;;;;3.38;0.80;;;23.60;82.20;;;;;;4999482;28;20045;-80
2022/07/02 11:30:31;;;;;;;5.97;0.90;;;23.70;81.30;;;;;;4983074;28;20061;-77
2022/07/02 11:32:57;;;;;;;5.05;0.70;;;23.70;79.70;;;;;;5018367;28;20050;-81
2022/07/02 11:35:24;;;;;;;2.42;0.68;;;23.80;81.60;;;;;;5017299;28;20125;-76
2022/07/02 11:37:54;;;;;;;;;;;23.50;79.90;;;;;;4999835;28;20045;-75
2022/07/02 11:40:21;;;;;;;4.15;0.60;;;23.50;81.00;;;;;;5017360;28;19935;-75
2022/07/02 11:42:48;;;;;;;4.20;0.82;;;23.20;81.70;;;;;;5016627;28;20419;-76
2022/07/02 11:45:14;;;;;;;3.38;0.60;;;23.40;80.10;;;;;;5018823;28;20130;-75
2022/07/02 11:47:47;;;;;;;2.47;0.73;;;23.70;82.00;;;;;;5001650;28;20099;-75
2022/07/02 11:50:13;;;;;;;4.47;0.93;;;24.00;79.20;;;;;;5017479;28;20049;-74
2022/07/02 11:52:40;;;;;;;4.68;0.90;;;24.30;78.30;;;;;;4999775;28;20394;-76
2022/07/02 11:55:13;;;;;;;4.93;0.88;;;24.40;78.00;;;;;;5016108;28;20045;-77
2022/07/02 11:57:39;;;;;;;5.05;0.80;;;24.30;75.40;;;;;;5016756;28;20112;-75
2022/07/02 12:00:05;;;;;;;7.33;0.97;;;24.00;77.10;;;;;;5015621;28;20123;-76
2022/07/02 12:02:41;;;;;;;4.40;0.77;;;24.30;79.90;;;;;;4982767;28;20046;-76
2022/07/02 12:05:15;;;;;;;5.75;0.70;;;24.60;77.10;;;;;;4998459;28;20568;-76
2022/07/02 12:07:42;;;;;;;4.88;0.90;;;24.40;78.30;;;;;;5016067;28;20041;-76
2022/07/02 12:10:09;;;;;;;6.07;0.98;;;24.30;77.40;;;;;;5016116;28;20042;-76
2022/07/02 12:12:35;;;;;;;3.33;0.80;;;24.40;77.90;;;;;;5015760;28;20046;-76
2022/07/02 12:15:03;;;;;;;7.40;0.90;;;24.30;78.20;;;;;;4997311;28;20137;-77
2022/07/02 12:17:30;;;;;;;4.25;1.00;;;24.30;77.60;;;;;;5014503;28;20046;-77
2022/07/02 12:19:56;;;;;;;3.30;1.00;;;24.60;77.20;;;;;;5014499;28;20049;-78
2022/07/02 12:22:29;;;;;;;3.03;0.90;;;24.70;77.70;;;;;;4997090;28;20084;-78
2022/07/02 12:24:55;;;;;;;3.35;0.90;;;24.40;78.00;;;;;;4981986;28;20104;-78
2022/07/02 12:27:23;;;;;;;5.13;0.88;;;24.50;79.40;;;;;;5014652;28;20492;-76
2022/07/02 12:30:04;;;;;;;3.78;0.93;;;24.40;77.30;;;;;;5013773;28;20474;-76
2022/07/02 12:32:35;;;;;;;4.10;0.75;;;24.50;76.10;;;;;;5014492;28;20458;-77
2022/07/02 12:35:03;;;;;;;4.75;1.00;;;24.60;74.70;;;;;;5014042;28;20120;-78
2022/07/02 12:37:35;;;;;;;6.68;0.77;;;24.50;74.80;;;;;;5014598;28;20101;-76
2022/07/02 12:40:08;;;;;;;9.85;0.95;;;24.20;74.50;;;;;;5014575;28;20045;-76
2022/07/02 12:42:43;;;;;;;4.45;0.90;;;24.30;76.50;;;;;;5014445;28;20042;-78
2022/07/02 12:45:10;;;;;;;4.53;0.80;;;24.90;76.60;;;;;;5013786;28;20062;-78